METAR AND TAF INFORMATION
METAR FOR EGFF
ADDS - METARS form results

(1804 UTC 18 July 2018)
Data provider http://aviationweather.gov/adds/metars/
 
METAR text: EGFF 181750Z AUTO 26009KT 9999 NCD 20/10 Q1019
Conditions at: EGFF (CARDIFF-WALES AR, GB) observed 1750 UTC 18 July 2018
Temperature: 20.0°C (68°F)
Dewpoint: 10.0°C (50°F) [RH = 53%]
Pressure (altimeter): 30.09 inches Hg (1019.0 mb)
Winds: from the W (260 degrees) at 10 MPH (9 knots; 4.7 m/s)
Visibility: 6 or more miles (10+ km)
Ceiling: at least 12,000 feet AGL
Clouds: sky clear below 12,000 feet AGL
Weather: no significant weather observed at this time

METAR text: EGFF 181720Z AUTO 27010KT 9999 NCD 20/11 Q1019
Conditions at: EGFF (CARDIFF-WALES AR, GB) observed 1720 UTC 18 July 2018
Temperature: 20.0°C (68°F)
Dewpoint: 11.0°C (52°F) [RH = 56%]
Pressure (altimeter): 30.09 inches Hg (1019.0 mb)
Winds: from the W (270 degrees) at 12 MPH (10 knots; 5.2 m/s)
Visibility: 6 or more miles (10+ km)
Ceiling: at least 12,000 feet AGL
Clouds: sky clear below 12,000 feet AGL
Weather: no significant weather observed at this time

Forecast for: EGFF (CARDIFF-WALES AR, GB)
Text: TAF EGFF 181702Z 1818/1918 27009KT 9999 SCT045
Forecast period: 1800 UTC 18 July 2018 to 1800 UTC 19 July 2018
Forecast type: FROM: standard forecast or significant change
Winds: from the W (270 degrees) at 10 MPH (9 knots; 4.7 m/s)
Visibility: 6 or more miles (10+ km)
Clouds: scattered clouds at 4500 feet AGL
Weather: no significant weather forecast for this period

 AIRPORT MAP

 RUNWAY INFORMATION
Runway 12 Runway length 7848 ft Runway width 151 ft
Runway elevation 205 ft Runway displaced threshold 797 ft Runway heading 117
Runway 30 Runway length 7848 ft Runway width 151 ft
Runway elevation 213 ft Runway displaced threshold 551 ft Runway heading 297

 AIRPORT FREQUENCIES
Type APP Name Cardiff Ap Frequency 119.15 MHZ
Type APP Name Cardiff Ra Frequency 125.85 MHZ
Type ATIS Name ATIS Frequency 132.475 MHZ
Type Radar Name Frequency 133.6 MHZ
Type TWR Name Cardiff Tw Frequency 133.1 MHZ

 AIRPORT NEAR NAVIGATION AIDS



Powered by Virtual Airlines Manager [v2.6.2]